Eltopia, Washington
Current Conditions -  °F | °C
As of 10:53 PM on Friday 28 Nov 2014 (Local Time) from KPSC Reporting Station
Overcast Overcast  
Wind Chill: 52°   Ceiling: 8000
Heat Index: 52°   Visibility: 10mi
Dew Point: 44°   Wind: 24mph
Humidity: 74%   Direction: 230°SW
Pressure: 29.38"   Gusts: 31mph
Location:  46.46°N, 119.02°W
Report Text: KPSC 290653Z AUTO 23021G27KT 10SM FEW055 OVC080 11/07 A2938 RMK AO2 PK WND 24032/0640 SLP947 T01110067 $
Loading
Personal Weather Stations






























Interactive Weather Map New forecast layout! Learn more

10-Day Weather Forecast

Advertisements
Track Severe Weather on mobile